Time;durP1;ratioP1;P1;durP2;ratioP2;P2;SDS_P1;SDS_P2;PMS_P1;PMS_P2;Temp;Humidity;BMP_temperature;BMP_pressure;BME280_temperature;BME280_humidity;BME280_pressure;Samples;Min_cycle;Max_cycle;Signal;HPM_P1;HPM_P2
2022/05/25 00:00:32;;;;;;;2.43;1.70;;;24.00;45.30;;;;;;4924401;28;88928;-77
2022/05/25 00:03:00;;;;;;;4.90;1.93;;;24.00;45.20;;;;;;4923867;28;88538;-76
2022/05/25 00:05:30;;;;;;;4.23;2.03;;;24.00;45.30;;;;;;4925374;28;88663;-77
2022/05/25 00:07:58;;;;;;;4.30;2.17;;;24.00;46.00;;;;;;4919298;28;90141;-78
2022/05/25 00:10:26;;;;;;;4.27;1.57;;;24.00;45.30;;;;;;4923668;28;89750;-76
2022/05/25 00:12:54;;;;;;;4.03;1.50;;;24.00;45.30;;;;;;4920562;28;88968;-77
2022/05/25 00:15:24;;;;;;;4.03;1.70;;;24.00;45.30;;;;;;4918092;28;88652;-77
2022/05/25 00:17:53;;;;;;;2.87;1.50;;;24.00;45.30;;;;;;4922990;28;91234;-77
2022/05/25 00:20:21;;;;;;;3.27;1.97;;;24.00;45.30;;;;;;4923060;28;89393;-77
2022/05/25 00:22:50;;;;;;;7.30;1.80;;;24.00;45.30;;;;;;4924707;28;91093;-78
2022/05/25 00:25:20;;;;;;;4.03;1.57;;;24.00;45.40;;;;;;4923180;28;88686;-77
2022/05/25 00:27:48;;;;;;;2.57;1.73;;;24.00;45.50;;;;;;4918816;28;89812;-77
2022/05/25 00:30:16;;;;;;;7.43;1.50;;;24.00;45.50;;;;;;4923168;28;88623;-78
2022/05/25 00:32:45;;;;;;;2.13;1.40;;;24.00;45.50;;;;;;4920168;28;88395;-74
2022/05/25 00:35:15;;;;;;;4.00;1.40;;;23.90;45.40;;;;;;4925668;28;88544;-78
2022/05/25 00:37:43;;;;;;;3.07;1.57;;;23.90;45.40;;;;;;4940404;28;89711;-77
2022/05/25 00:40:12;;;;;;;1.90;1.37;;;23.90;45.40;;;;;;4932341;28;88633;-77
2022/05/25 00:42:40;;;;;;;3.13;1.37;;;23.90;45.50;;;;;;4922972;28;88564;-77
2022/05/25 00:45:09;;;;;;;2.30;1.50;;;24.00;45.60;;;;;;4922677;28;88425;-77
2022/05/25 00:47:38;;;;;;;1.70;1.47;;;23.90;45.50;;;;;;4938062;28;90780;-77
2022/05/25 00:50:09;;;;;;;4.60;1.60;;;23.90;45.50;;;;;;4931836;28;89214;-76
2022/05/25 00:52:38;;;;;;;2.67;1.73;;;23.90;45.50;;;;;;4922529;28;88822;-77
2022/05/25 00:55:07;;;;;;;2.87;1.57;;;23.90;45.60;;;;;;4938735;28;88493;-77
2022/05/25 00:57:36;;;;;;;5.33;1.30;;;23.90;45.60;;;;;;4939206;28;90794;-77
2022/05/25 01:00:06;;;;;;;1.53;1.17;;;23.90;45.60;;;;;;4930999;28;93167;-77
2022/05/25 01:02:35;;;;;;;2.70;1.40;;;23.90;45.60;;;;;;4941436;28;89873;-76
2022/05/25 01:05:04;;;;;;;1.77;1.50;;;23.80;46.20;;;;;;4938857;28;88673;-77
2022/05/25 01:07:41;;;;;;;1.83;1.33;;;23.80;45.60;;;;;;4933177;28;89465;-77
2022/05/25 01:10:14;;;;;;;2.77;1.40;;;23.80;45.60;;;;;;4930449;28;89187;-78
2022/05/25 01:12:56;;;;;;;2.67;1.43;;;23.80;45.60;;;;;;4939669;28;88723;-77
2022/05/25 01:15:27;;;;;;;2.17;1.30;;;23.80;45.60;;;;;;4919889;28;88479;-77
2022/05/25 01:18:05;;;;;;;1.77;1.07;;;23.80;45.60;;;;;;4923393;28;89880;-78
2022/05/25 01:20:35;;;;;;;2.27;1.23;;;23.80;45.60;;;;;;4931818;28;89104;-76
2022/05/25 01:23:38;;;;;;;1.70;0.97;;;23.80;45.60;;;;;;4923270;28;88510;-76
2022/05/25 01:26:28;;;;;;;1.40;1.03;;;23.80;45.70;;;;;;4921500;28;88317;-77
2022/05/25 01:29:06;;;;;;;3.37;1.03;;;23.80;45.60;;;;;;4921337;28;89612;-77
2022/05/25 01:31:37;;;;;;;1.10;1.00;;;23.80;45.60;;;;;;4924190;28;89514;-76
2022/05/25 01:34:07;;;;;;;2.37;1.33;;;23.80;45.60;;;;;;4921466;28;92116;-77
2022/05/25 01:36:39;;;;;;;2.13;1.50;;;23.80;45.60;;;;;;4921262;28;88600;-78
2022/05/25 01:39:08;;;;;;;2.07;1.37;;;23.80;45.70;;;;;;4923836;28;90680;-77
2022/05/25 01:41:38;;;;;;;3.37;1.40;;;23.80;45.60;;;;;;4937524;28;88979;-78
2022/05/25 01:44:07;;;;;;;3.47;1.20;;;23.80;45.70;;;;;;4925348;28;88946;-78
2022/05/25 01:46:39;;;;;;;3.23;1.57;;;23.80;45.70;;;;;;4924538;28;88503;-77
2022/05/25 01:49:08;;;;;;;1.77;1.23;;;23.80;45.70;;;;;;4929087;28;89412;-78
2022/05/25 01:51:39;;;;;;;3.73;1.40;;;23.80;45.70;;;;;;4926890;28;89258;-78
2022/05/25 01:54:09;;;;;;;2.97;1.70;;;23.70;45.70;;;;;;4926723;28;88463;-77
2022/05/25 01:56:38;;;;;;;3.70;1.90;;;23.70;45.70;;;;;;4926703;28;88617;-78
2022/05/25 01:59:08;;;;;;;5.17;1.97;;;23.80;45.80;;;;;;4926988;28;89517;-77
2022/05/25 02:01:47;;;;;;;4.70;2.33;;;23.80;45.80;;;;;;4937631;28;89950;-77
2022/05/25 02:04:20;;;;;;;9.40;3.57;;;23.70;45.70;;;;;;4943910;28;88447;-77
2022/05/25 02:07:00;;;;;;;8.43;3.10;;;23.70;45.70;;;;;;4943584;28;88649;-77
2022/05/25 02:09:36;;;;;;;5.77;3.47;;;23.70;45.70;;;;;;4929762;28;89691;-79
2022/05/25 02:12:08;;;;;;;7.60;4.23;;;23.70;45.80;;;;;;4924357;28;89042;-78
2022/05/25 02:14:52;;;;;;;11.87;4.87;;;23.70;45.70;;;;;;4924645;28;88549;-78
2022/05/25 02:17:27;;;;;;;18.63;7.33;;;23.60;45.70;;;;;;4943188;28;88720;-77
2022/05/25 02:19:57;;;;;;;12.40;5.30;;;23.70;45.80;;;;;;4940612;28;89544;-77
2022/05/25 02:22:27;;;;;;;16.63;6.67;;;23.70;45.80;;;;;;4935165;28;90014;-78
2022/05/25 02:24:58;;;;;;;14.27;6.60;;;23.70;45.80;;;;;;4924264;28;88976;-78
2022/05/25 02:27:29;;;;;;;23.83;11.23;;;23.70;45.80;;;;;;4926657;28;88643;-77
2022/05/25 02:29:58;;;;;;;28.10;11.63;;;23.70;45.80;;;;;;4920769;28;90485;-77
2022/05/25 02:32:30;;;;;;;28.40;12.90;;;23.60;46.40;;;;;;4921229;28;92153;-77
2022/05/25 02:34:58;;;;;;;22.53;11.43;;;23.70;45.90;;;;;;4931707;28;89100;-78
2022/05/25 02:37:27;;;;;;;25.03;10.67;;;23.70;45.90;;;;;;4922551;28;88723;-77
2022/05/25 02:39:55;;;;;;;28.60;13.03;;;23.70;45.90;;;;;;4927152;28;89473;-76
2022/05/25 02:42:23;;;;;;;33.00;15.63;;;23.70;45.90;;;;;;4934232;28;92029;-76
2022/05/25 02:44:51;;;;;;;28.50;13.80;;;23.70;45.90;;;;;;4937714;28;88778;-76
2022/05/25 02:47:19;;;;;;;29.77;15.53;;;23.70;46.50;;;;;;4935540;28;88558;-77
2022/05/25 02:49:48;;;;;;;34.37;15.83;;;23.70;45.90;;;;;;4925915;28;91596;-77
2022/05/25 02:52:17;;;;;;;35.70;16.93;;;23.70;46.00;;;;;;4935922;28;90108;-77
2022/05/25 02:54:46;;;;;;;37.27;17.37;;;23.70;46.00;;;;;;4919254;28;90760;-77
2022/05/25 02:57:14;;;;;;;38.50;17.53;;;23.70;46.00;;;;;;4921842;28;88711;-77
2022/05/25 02:59:42;;;;;;;34.97;16.23;;;23.70;46.00;;;;;;4922546;28;89549;-78
2022/05/25 03:02:11;;;;;;;49.97;18.30;;;23.60;45.90;;;;;;4924051;28;89473;-77
2022/05/25 03:04:40;;;;;;;33.13;17.57;;;23.60;45.90;;;;;;4920922;28;88434;-77
2022/05/25 03:07:09;;;;;;;37.40;15.90;;;23.60;46.60;;;;;;4921837;28;88368;-77
2022/05/25 03:09:38;;;;;;;44.73;16.23;;;23.60;45.90;;;;;;4921758;28;89238;-77
2022/05/25 03:12:06;;;;;;;25.23;13.50;;;23.60;46.00;;;;;;4921886;28;89678;-77
2022/05/25 03:14:34;;;;;;;31.63;14.07;;;23.60;45.90;;;;;;4924127;28;88387;-77
2022/05/25 03:17:08;;;;;;;34.23;15.90;;;23.60;46.00;;;;;;4939192;28;88714;-77
2022/05/25 03:19:37;;;;;;;28.23;14.37;;;23.60;46.00;;;;;;4925054;28;89278;-77
2022/05/25 03:22:05;;;;;;;30.67;14.10;;;23.60;46.00;;;;;;4931595;28;92863;-78
2022/05/25 03:24:34;;;;;;;25.17;12.70;;;23.60;46.00;;;;;;4931223;28;89865;-77
2022/05/25 03:27:02;;;;;;;26.80;13.10;;;23.60;46.00;;;;;;4926508;28;88672;-75
2022/05/25 03:29:32;;;;;;;24.47;12.57;;;23.60;46.00;;;;;;4936114;28;90681;-77
2022/05/25 03:32:00;;;;;;;24.27;11.43;;;23.60;46.00;;;;;;4920632;28;90628;-77
2022/05/25 03:34:28;;;;;;;24.53;12.23;;;23.60;46.00;;;;;;4930381;28;90188;-77
2022/05/25 03:36:56;;;;;;;27.07;13.63;;;23.60;46.00;;;;;;4924181;28;89216;-77
2022/05/25 03:39:24;;;;;;;24.03;11.37;;;23.50;46.00;;;;;;4924508;28;90064;-77
2022/05/25 03:41:55;;;;;;;20.97;11.17;;;23.50;46.00;;;;;;4921547;28;90717;-77
2022/05/25 03:44:23;;;;;;;23.63;11.17;;;23.50;46.00;;;;;;4921485;28;88426;-78
2022/05/25 03:46:51;;;;;;;23.03;9.53;;;23.60;46.00;;;;;;4923686;28;90120;-77
2022/05/25 03:49:19;;;;;;;20.93;9.97;;;23.60;46.00;;;;;;4918357;28;89733;-77
2022/05/25 03:51:47;;;;;;;17.00;8.80;;;23.50;46.00;;;;;;4930836;28;88995;-77
2022/05/25 03:54:15;;;;;;;22.03;10.20;;;23.60;46.10;;;;;;4922337;28;88566;-78
2022/05/25 03:56:43;;;;;;;15.87;9.10;;;23.60;46.10;;;;;;4922854;28;88710;-76
2022/05/25 03:59:13;;;;;;;17.00;8.63;;;23.60;46.00;;;;;;4906354;28;88652;-77
2022/05/25 04:01:40;;;;;;;16.77;8.70;;;23.60;46.00;;;;;;4909861;28;90482;-77
2022/05/25 04:04:10;;;;;;;17.57;8.43;;;23.60;46.00;;;;;;4930794;28;88466;-78
2022/05/25 04:06:38;;;;;;;15.03;7.90;;;23.60;46.10;;;;;;4935898;28;88414;-78
2022/05/25 04:09:09;;;;;;;15.20;7.57;;;23.50;46.00;;;;;;4910198;28;90953;-78
2022/05/25 04:11:37;;;;;;;14.60;7.30;;;23.50;46.00;;;;;;4913821;28;89558;-77
2022/05/25 04:14:05;;;;;;;15.63;7.70;;;23.50;46.00;;;;;;4919766;28;89121;-78
2022/05/25 04:16:35;;;;;;;13.47;7.13;;;23.60;46.00;;;;;;4916646;28;88707;-77
2022/05/25 04:19:03;;;;;;;13.53;7.03;;;23.60;46.00;;;;;;4910995;28;91779;-77
2022/05/25 04:21:31;;;;;;;9.33;5.60;;;23.60;46.10;;;;;;4911993;28;90166;-77
2022/05/25 04:23:59;;;;;;;13.43;6.80;;;23.60;46.00;;;;;;4906299;28;88910;-77
2022/05/25 04:26:28;;;;;;;10.47;5.53;;;23.50;46.00;;;;;;4920225;28;88440;-77
2022/05/25 04:28:56;;;;;;;10.47;5.80;;;23.50;46.00;;;;;;4926522;28;91871;-77
2022/05/25 04:31:24;;;;;;;13.83;6.67;;;23.50;46.10;;;;;;4926520;28;92912;-77
2022/05/25 04:33:54;;;;;;;11.20;6.40;;;23.50;46.00;;;;;;4923446;28;90487;-77
2022/05/25 04:36:22;;;;;;;11.80;5.87;;;23.50;46.70;;;;;;4921271;28;88632;-77
2022/05/25 04:38:50;;;;;;;16.30;6.37;;;23.50;46.70;;;;;;4917550;28;89572;-77
2022/05/25 04:41:18;;;;;;;12.00;6.77;;;23.50;46.10;;;;;;4913119;28;92385;-76
2022/05/25 04:43:46;;;;;;;13.53;7.27;;;23.50;46.10;;;;;;4914842;28;91268;-77
2022/05/25 04:46:14;;;;;;;15.10;7.03;;;23.50;46.10;;;;;;4909818;28;89157;-76
2022/05/25 04:48:44;;;;;;;9.33;5.83;;;23.50;46.10;;;;;;4914778;28;90529;-77
2022/05/25 04:51:14;;;;;;;11.23;6.10;;;23.50;46.10;;;;;;4914651;28;88825;-76
2022/05/25 04:53:43;;;;;;;11.13;5.77;;;23.50;46.70;;;;;;4911720;28;91157;-77
2022/05/25 04:58:57;;;;;;;7.67;4.77;;;23.60;46.00;;;;;;4915283;28;90959;-76
2022/05/25 05:01:25;;;;;;;9.93;5.03;;;23.60;46.00;;;;;;4920916;28;89955;-77
2022/05/25 05:03:59;;;;;;;7.43;4.30;;;23.60;46.10;;;;;;4913062;28;89073;-76
2022/05/25 05:06:28;;;;;;;8.33;3.80;;;23.60;46.10;;;;;;4908993;28;88616;-76
2022/05/25 05:08:56;;;;;;;6.23;4.07;;;23.60;46.10;;;;;;4903720;28;90779;-75
2022/05/25 05:11:24;;;;;;;8.77;3.97;;;23.60;46.20;;;;;;4914076;28;88725;-76
2022/05/25 05:13:52;;;;;;;7.87;3.70;;;23.60;46.20;;;;;;4914659;28;89758;-73
2022/05/25 05:16:20;;;;;;;5.50;3.50;;;23.60;46.20;;;;;;4917684;28;88677;-74
2022/05/25 05:18:48;;;;;;;7.00;3.10;;;23.50;46.20;;;;;;4922901;28;90576;-74
2022/05/25 05:21:17;;;;;;;6.20;3.00;;;23.50;46.30;;;;;;4923362;28;88360;-75
2022/05/25 05:23:48;;;;;;;5.80;2.90;;;23.40;46.30;;;;;;4921058;28;88607;-77
2022/05/25 05:26:16;;;;;;;4.57;2.33;;;23.40;46.50;;;;;;4913427;28;88432;-77
2022/05/25 05:28:45;;;;;;;5.00;2.47;;;23.50;46.50;;;;;;4916516;28;90113;-77
2022/05/25 05:31:14;;;;;;;3.83;2.53;;;23.50;46.60;;;;;;4913845;28;90085;-77
2022/05/25 05:33:42;;;;;;;5.07;2.10;;;23.40;46.50;;;;;;4913450;28;88423;-77
2022/05/25 05:36:12;;;;;;;4.87;2.37;;;23.50;46.60;;;;;;4916204;28;88458;-77
2022/05/25 05:38:42;;;;;;;5.67;2.43;;;23.50;46.60;;;;;;4918609;28;91556;-77
2022/05/25 05:41:12;;;;;;;5.30;2.30;;;23.50;46.60;;;;;;4917658;28;89181;-77
2022/05/25 05:43:40;;;;;;;5.30;2.20;;;23.50;46.60;;;;;;4918594;28;88656;-77
2022/05/25 05:46:08;;;;;;;5.13;2.80;;;23.40;46.50;;;;;;4920737;28;89355;-77
2022/05/25 05:48:37;;;;;;;4.10;2.43;;;23.50;46.60;;;;;;4917853;28;90662;-77
2022/05/25 05:51:05;;;;;;;4.47;2.20;;;23.50;46.60;;;;;;4919596;28;88841;-77
2022/05/25 05:53:33;;;;;;;4.57;3.20;;;23.40;46.50;;;;;;4920282;28;88478;-77
2022/05/25 05:56:01;;;;;;;4.80;2.77;;;23.50;46.60;;;;;;4917898;28;88540;-78
2022/05/25 05:58:31;;;;;;;6.77;4.23;;;23.50;46.60;;;;;;4908618;28;94322;-75
2022/05/25 06:00:59;;;;;;;8.63;4.00;;;23.40;46.60;;;;;;4919952;28;89847;-75
2022/05/25 06:03:28;;;;;;;5.40;3.40;;;23.50;46.60;;;;;;4916973;28;89736;-75
2022/05/25 06:05:56;;;;;;;7.37;3.57;;;23.50;46.50;;;;;;4918909;28;88690;-75
2022/05/25 06:08:24;;;;;;;5.07;3.37;;;23.50;46.60;;;;;;4920311;28;91816;-75
2022/05/25 06:10:52;;;;;;;6.67;3.77;;;23.50;46.50;;;;;;4914604;28;89925;-75
2022/05/25 06:13:20;;;;;;;5.03;3.47;;;23.50;46.50;;;;;;4919829;28;88584;-75
2022/05/25 06:21:22;;;;;;;5.17;3.53;;;23.50;46.50;;;;;;4915395;28;89085;-75
2022/05/25 06:23:50;;;;;;;6.83;4.60;;;23.50;46.50;;;;;;4914078;28;88320;-76
2022/05/25 06:26:19;;;;;;;6.53;4.03;;;23.50;46.50;;;;;;4921163;28;89766;-75
2022/05/25 06:28:47;;;;;;;10.10;4.47;;;23.60;46.50;;;;;;4919821;28;91191;-75
2022/05/25 06:31:16;;;;;;;7.13;3.80;;;23.60;46.50;;;;;;4920451;28;89698;-76
2022/05/25 06:33:45;;;;;;;6.03;4.20;;;23.60;46.50;;;;;;4922187;28;88793;-75
2022/05/25 06:36:14;;;;;;;7.27;4.40;;;23.60;46.50;;;;;;4922156;28;88559;-75
2022/05/25 06:38:42;;;;;;;8.80;4.73;;;23.50;46.40;;;;;;4922918;28;90693;-76
2022/05/25 06:41:10;;;;;;;14.57;4.40;;;23.60;46.60;;;;;;4924730;28;89143;-75
2022/05/25 06:43:38;;;;;;;11.40;5.27;;;23.60;46.70;;;;;;4942344;28;88803;-75
2022/05/25 06:46:06;;;;;;;9.23;5.60;;;23.60;46.80;;;;;;4942841;28;88491;-75
2022/05/25 06:48:48;;;;;;;11.07;5.03;;;23.60;46.90;;;;;;4916988;28;92321;-75
2022/05/25 06:51:18;;;;;;;9.30;4.43;;;23.60;47.10;;;;;;4925961;28;90517;-75
2022/05/25 06:53:46;;;;;;;7.00;4.47;;;23.60;47.20;;;;;;4935193;28;91183;-75
2022/05/25 06:56:14;;;;;;;7.30;4.63;;;23.60;47.30;;;;;;4932986;28;88329;-76
2022/05/25 06:58:43;;;;;;;7.53;4.70;;;23.60;47.50;;;;;;4923243;28;89354;-75
2022/05/25 07:01:10;;;;;;;16.90;5.40;;;23.80;47.60;;;;;;4923841;28;90135;-75
2022/05/25 07:03:39;;;;;;;7.67;4.30;;;23.70;47.60;;;;;;4925377;28;88421;-75
2022/05/25 07:06:09;;;;;;;8.33;4.17;;;23.70;47.60;;;;;;4924099;28;88820;-75
2022/05/25 07:08:37;;;;;;;9.83;4.53;;;23.80;47.70;;;;;;4923710;28;89618;-75
2022/05/25 07:11:05;;;;;;;7.97;4.47;;;23.80;47.80;;;;;;4936567;28;88963;-75
2022/05/25 07:13:33;;;;;;;5.10;4.00;;;23.80;47.80;;;;;;4933313;28;88576;-74
2022/05/25 07:16:03;;;;;;;5.47;3.70;;;23.80;47.90;;;;;;4926877;28;88600;-75
2022/05/25 07:18:31;;;;;;;6.93;4.00;;;23.80;47.90;;;;;;4941555;28;90622;-75
2022/05/25 07:21:01;;;;;;;5.63;3.73;;;23.90;48.00;;;;;;4928017;28;89393;-74
2022/05/25 07:23:31;;;;;;;5.70;3.27;;;24.00;48.00;;;;;;4936771;28;91301;-75
2022/05/25 07:25:59;;;;;;;9.73;3.60;;;24.00;47.90;;;;;;4939955;28;88745;-74
2022/05/25 07:28:27;;;;;;;3.87;3.10;;;24.00;47.90;;;;;;4925212;28;90685;-74
2022/05/25 07:30:57;;;;;;;3.57;2.20;;;24.00;47.90;;;;;;4928781;28;89119;-75
2022/05/25 07:33:25;;;;;;;8.90;3.23;;;24.10;47.90;;;;;;4930474;28;88541;-75
2022/05/25 07:35:53;;;;;;;6.83;2.93;;;24.00;47.80;;;;;;4925763;28;88279;-76
2022/05/25 07:38:21;;;;;;;3.27;2.50;;;24.10;47.80;;;;;;4929984;28;89863;-75
2022/05/25 07:40:51;;;;;;;4.57;3.00;;;24.10;47.80;;;;;;4926731;28;90013;-75
2022/05/25 07:43:20;;;;;;;3.87;2.53;;;24.10;47.80;;;;;;4928131;28;91641;-75
2022/05/25 07:45:48;;;;;;;5.67;2.10;;;24.10;47.70;;;;;;4926042;28;88620;-75
2022/05/25 07:48:16;;;;;;;3.53;2.70;;;24.10;47.60;;;;;;4929189;28;89552;-75
2022/05/25 07:50:45;;;;;;;4.63;3.13;;;24.10;47.60;;;;;;4922761;28;89433;-75
2022/05/25 07:56:03;;;;;;;2.47;2.10;;;24.10;47.50;;;;;;4929947;28;89348;-75
2022/05/25 07:58:31;;;;;;;2.83;1.80;;;24.10;47.50;;;;;;4921416;28;93074;-75
2022/05/25 08:01:10;;;;;;;4.10;2.23;;;24.10;47.40;;;;;;4927747;28;89536;-76
2022/05/25 08:06:24;;;;;;;5.80;2.00;;;24.10;47.40;;;;;;4931733;28;88635;-75
2022/05/25 08:08:52;;;;;;;2.23;1.83;;;24.10;47.40;;;;;;4921541;28;89310;-76
2022/05/25 08:11:22;;;;;;;3.60;2.00;;;24.10;47.40;;;;;;4921427;28;88274;-76
2022/05/25 08:13:52;;;;;;;1.87;1.67;;;24.10;47.40;;;;;;4919404;28;88495;-75
2022/05/25 08:16:20;;;;;;;3.47;1.37;;;24.10;47.30;;;;;;4919327;28;88520;-75
2022/05/25 08:18:48;;;;;;;3.13;1.83;;;24.10;47.30;;;;;;4921575;28;90944;-75
2022/05/25 08:21:16;;;;;;;3.23;1.77;;;24.10;47.30;;;;;;4921305;28;91387;-76
2022/05/25 08:24:05;;;;;;;2.00;1.37;;;24.10;47.20;;;;;;4920346;28;88896;-75
2022/05/25 08:26:34;;;;;;;2.80;1.57;;;24.10;47.20;;;;;;4921705;28;88639;-76
2022/05/25 08:29:02;;;;;;;2.17;1.37;;;24.10;47.20;;;;;;4921325;28;91233;-75
2022/05/25 08:31:30;;;;;;;2.63;1.10;;;24.10;47.10;;;;;;4920620;28;89085;-75
2022/05/25 08:33:58;;;;;;;3.53;0.90;;;24.20;47.20;;;;;;4912154;28;90190;-75
2022/05/25 08:36:27;;;;;;;2.37;1.10;;;24.20;47.10;;;;;;4904572;28;88565;-74
2022/05/25 08:38:55;;;;;;;3.37;1.07;;;24.20;47.10;;;;;;4921414;28;93039;-75
2022/05/25 08:41:26;;;;;;;0.97;0.93;;;24.20;47.10;;;;;;4921377;28;89565;-76
2022/05/25 08:43:55;;;;;;;3.30;1.30;;;24.20;47.00;;;;;;4921492;28;88401;-75
2022/05/25 08:46:24;;;;;;;3.00;1.10;;;24.20;47.00;;;;;;4921520;28;88517;-75
2022/05/25 08:48:53;;;;;;;1.17;1.07;;;24.20;47.60;;;;;;4921075;28;89929;-75
2022/05/25 08:51:40;;;;;;;2.00;1.00;;;24.20;46.90;;;;;;4920723;28;89252;-75
2022/05/25 08:54:09;;;;;;;0.93;0.80;;;24.20;46.90;;;;;;4920763;28;90273;-75
2022/05/25 08:56:38;;;;;;;1.50;0.90;;;24.20;46.80;;;;;;4922003;28;88995;-75
2022/05/25 08:59:12;;;;;;;1.97;1.20;;;24.20;46.70;;;;;;4923596;28;90198;-75
2022/05/25 09:01:43;;;;;;;1.20;0.80;;;24.20;46.60;;;;;;4924521;28;88660;-75
2022/05/25 09:04:19;;;;;;;2.53;0.90;;;24.20;46.60;;;;;;4924222;28;89600;-75
2022/05/25 09:06:49;;;;;;;0.70;0.70;;;24.10;46.40;;;;;;4924502;28;88612;-75
2022/05/25 09:09:20;;;;;;;1.20;0.80;;;24.10;46.30;;;;;;4924275;28;89263;-75
2022/05/25 09:11:49;;;;;;;0.57;0.50;;;24.10;46.20;;;;;;4920668;28;90125;-75
2022/05/25 09:14:21;;;;;;;0.77;0.63;;;24.10;46.10;;;;;;4922761;28;88541;-75
2022/05/25 09:16:50;;;;;;;0.90;0.50;;;24.10;46.00;;;;;;4921342;28;88584;-75
2022/05/25 09:19:19;;;;;;;4.40;0.80;;;24.10;45.80;;;;;;4923519;28;90673;-74
2022/05/25 09:21:49;;;;;;;3.60;0.90;;;24.00;45.70;;;;;;4924085;28;90107;-76
2022/05/25 09:24:19;;;;;;;2.63;0.90;;;24.00;45.70;;;;;;4923138;28;89975;-75
2022/05/25 09:26:47;;;;;;;1.07;0.60;;;24.00;45.60;;;;;;4922869;28;88649;-75
2022/05/25 09:29:16;;;;;;;0.40;0.40;;;24.00;45.40;;;;;;4917989;28;89903;-75
2022/05/25 09:31:48;;;;;;;0.90;0.70;;;24.00;45.20;;;;;;4905514;28;90523;-76
2022/05/25 09:34:23;;;;;;;1.20;0.67;;;24.00;45.10;;;;;;4921958;28;89152;-75
2022/05/25 09:36:53;;;;;;;2.57;0.60;;;24.00;45.00;;;;;;4910780;28;88537;-76
2022/05/25 09:39:24;;;;;;;1.97;1.00;;;24.00;45.00;;;;;;4908378;28;91351;-75
2022/05/25 09:41:55;;;;;;;1.90;0.50;;;24.00;44.90;;;;;;4921233;28;89343;-75
2022/05/25 09:44:23;;;;;;;2.07;0.60;;;24.00;44.80;;;;;;4924053;28;88420;-75
2022/05/25 09:46:54;;;;;;;1.73;0.80;;;24.00;44.70;;;;;;4923981;28;88346;-74
2022/05/25 09:49:39;;;;;;;1.47;0.77;;;23.90;44.60;;;;;;4904839;28;89657;-75
2022/05/25 09:52:15;;;;;;;1.93;0.70;;;24.00;44.70;;;;;;4904310;28;90133;-75
2022/05/25 09:54:45;;;;;;;1.23;0.60;;;24.10;44.70;;;;;;4904400;28;90502;-75
2022/05/25 09:57:17;;;;;;;0.60;0.60;;;24.10;44.60;;;;;;4921356;28;88378;-76
2022/05/25 09:59:50;;;;;;;1.33;0.50;;;24.00;44.50;;;;;;4922910;28;90209;-75
2022/05/25 10:02:23;;;;;;;0.40;0.40;;;24.10;44.50;;;;;;4921232;28;89659;-75
2022/05/25 10:04:55;;;;;;;0.60;0.60;;;24.00;44.40;;;;;;4924128;28;89117;-75
2022/05/25 10:07:33;;;;;;;0.40;0.40;;;24.00;44.30;;;;;;4923257;28;88586;-75
2022/05/25 10:10:02;;;;;;;1.30;0.60;;;24.00;44.30;;;;;;4923070;28;88702;-74
2022/05/25 10:12:32;;;;;;;1.10;0.60;;;24.10;44.40;;;;;;4916825;28;91983;-75
2022/05/25 10:15:01;;;;;;;0.77;0.50;;;24.00;44.20;;;;;;4904621;28;89697;-75
2022/05/25 10:17:36;;;;;;;0.47;0.47;;;24.10;44.20;;;;;;4904710;28;88488;-75
2022/05/25 10:20:06;;;;;;;2.10;0.93;;;24.10;44.10;;;;;;4910898;28;89590;-74
2022/05/25 10:22:36;;;;;;;1.13;0.60;;;24.10;44.10;;;;;;4923943;28;90156;-75
2022/05/25 10:25:07;;;;;;;0.90;0.67;;;24.10;44.00;;;;;;4923745;28;88639;-75
2022/05/25 10:27:37;;;;;;;0.50;0.50;;;24.10;43.90;;;;;;4914510;28;88670;-75
2022/05/25 10:38:46;;;;;;;1.20;0.50;;;24.10;43.50;;;;;;4898896;28;88719;-75
2022/05/25 10:44:04;;;;;;;1.03;0.63;;;24.10;43.50;;;;;;4906498;28;89276;-75
2022/05/25 10:46:32;;;;;;;1.10;0.70;;;24.10;43.30;;;;;;4911171;28;88599;-74
2022/05/25 10:49:07;;;;;;;2.37;0.87;;;24.20;43.30;;;;;;4905898;28;88526;-75
2022/05/25 10:51:40;;;;;;;0.87;0.77;;;24.10;43.30;;;;;;4906420;28;89411;-75
2022/05/25 10:57:01;;;;;;;0.43;0.40;;;24.20;43.30;;;;;;4903849;28;88193;-75
2022/05/25 10:59:30;;;;;;;3.30;1.03;;;24.20;43.20;;;;;;4903993;28;88642;-74
2022/05/25 11:02:10;;;;;;;1.13;0.80;;;24.20;43.20;;;;;;4903578;28;90795;-75
2022/05/25 11:05:09;;;;;;;3.17;0.93;;;24.30;43.30;;;;;;4917062;28;90064;-75
2022/05/25 11:07:39;;;;;;;1.20;0.80;;;24.30;43.30;;;;;;4923095;28;88526;-75
2022/05/25 11:10:32;;;;;;;1.60;0.83;;;24.40;43.30;;;;;;4922957;28;88656;-75
2022/05/25 11:13:18;;;;;;;1.10;0.60;;;24.30;43.30;;;;;;4922818;28;90723;-75
2022/05/25 11:15:50;;;;;;;0.50;0.50;;;24.30;43.20;;;;;;4921949;28;88860;-75
2022/05/25 11:18:25;;;;;;;3.30;0.93;;;24.40;43.20;;;;;;4922455;28;89282;-75
2022/05/25 11:21:01;;;;;;;2.60;0.57;;;24.30;43.10;;;;;;4922761;28;88699;-75
2022/05/25 11:23:49;;;;;;;2.53;1.00;;;24.30;43.00;;;;;;4921178;28;90305;-74
2022/05/25 11:26:35;;;;;;;2.60;0.63;;;24.30;42.90;;;;;;4922452;28;93359;-75
2022/05/25 11:29:14;;;;;;;1.67;0.80;;;24.30;42.90;;;;;;4923151;28;88338;-75
2022/05/25 11:31:49;;;;;;;2.13;0.40;;;24.20;42.80;;;;;;4923555;28;88155;-74
2022/05/25 11:34:24;;;;;;;0.63;0.43;;;24.20;42.80;;;;;;4922901;28;89699;-75
2022/05/25 11:37:19;;;;;;;0.47;0.47;;;24.30;42.80;;;;;;4903784;28;89582;-74
2022/05/25 11:39:53;;;;;;;2.33;1.27;;;24.30;42.90;;;;;;4903434;28;90201;-75
2022/05/25 11:42:29;;;;;;;0.87;0.80;;;24.30;42.90;;;;;;4903892;28;88760;-74
2022/05/25 11:45:24;;;;;;;0.60;0.60;;;24.30;42.90;;;;;;4911894;28;89781;-76
2022/05/25 11:48:16;;;;;;;1.07;0.80;;;24.40;43.10;;;;;;4922326;28;93345;-75
2022/05/25 11:50:46;;;;;;;1.03;1.03;;;24.40;43.10;;;;;;4922871;28;88836;-75
2022/05/25 11:53:30;;;;;;;1.23;0.83;;;24.40;43.10;;;;;;4922497;28;88370;-75
2022/05/25 11:56:01;;;;;;;1.27;0.90;;;24.40;43.10;;;;;;4921802;28;89496;-75
2022/05/25 11:58:36;;;;;;;0.73;0.50;;;24.50;43.80;;;;;;4921578;28;90115;-75
2022/05/25 12:01:07;;;;;;;2.97;0.90;;;24.50;43.10;;;;;;4922188;28;88648;-75
2022/05/25 12:04:04;;;;;;;1.07;0.73;;;24.50;43.00;;;;;;4922239;28;88464;-75
2022/05/25 12:06:46;;;;;;;7.27;0.80;;;24.40;43.00;;;;;;4922122;28;90208;-75
2022/05/25 12:09:23;;;;;;;0.63;0.63;;;24.40;43.00;;;;;;4921631;28;89195;-74
2022/05/25 12:11:54;;;;;;;1.53;0.63;;;24.40;42.90;;;;;;4921983;28;88562;-75
2022/05/25 12:14:34;;;;;;;2.10;0.77;;;24.40;42.90;;;;;;4922314;28;88374;-74
2022/05/25 12:17:07;;;;;;;0.70;0.47;;;24.40;42.90;;;;;;4922345;28;93623;-76
2022/05/25 12:19:36;;;;;;;0.57;0.57;;;24.40;42.80;;;;;;4921797;28;88478;-75
2022/05/25 12:22:05;;;;;;;3.90;0.70;;;24.50;42.80;;;;;;4921795;28;88468;-74
2022/05/25 12:24:36;;;;;;;2.77;0.60;;;24.50;42.80;;;;;;4922250;28;88623;-74
2022/05/25 12:27:07;;;;;;;2.53;0.93;;;24.40;42.70;;;;;;4921497;28;89593;-74
2022/05/25 12:29:36;;;;;;;3.73;1.27;;;24.50;42.70;;;;;;4922160;28;88493;-74
2022/05/25 12:32:04;;;;;;;0.60;0.60;;;24.50;42.70;;;;;;4921384;28;88414;-75
2022/05/25 12:34:35;;;;;;;3.23;0.80;;;24.50;42.70;;;;;;4921982;28;88354;-74
2022/05/25 12:37:03;;;;;;;3.50;0.63;;;24.50;42.80;;;;;;4920307;28;90722;-76
2022/05/25 12:39:58;;;;;;;0.60;0.60;;;24.50;42.80;;;;;;4921100;28;89324;-75
2022/05/25 12:42:34;;;;;;;2.00;0.80;;;24.50;42.80;;;;;;4922180;28;88358;-75
2022/05/25 12:50:44;;;;;;;2.83;0.73;;;24.50;42.80;;;;;;4921271;28;90958;-74
2022/05/25 12:53:21;;;;;;;2.77;0.70;;;24.50;42.80;;;;;;4921009;28;92879;-75
2022/05/25 12:55:57;;;;;;;0.77;0.70;;;24.50;42.80;;;;;;4921441;28;88416;-75
2022/05/25 12:58:41;;;;;;;4.73;0.60;;;24.50;42.80;;;;;;4920853;28;89544;-76
2022/05/25 13:01:27;;;;;;;1.93;0.70;;;24.50;42.80;;;;;;4921449;28;90414;-75
2022/05/25 13:04:19;;;;;;;1.00;0.73;;;24.50;42.80;;;;;;4920780;28;88510;-75
2022/05/25 13:07:08;;;;;;;1.80;0.63;;;24.50;42.80;;;;;;4921162;28;88468;-75
2022/05/25 13:09:40;;;;;;;1.30;0.77;;;24.50;42.70;;;;;;4921152;28;89627;-75
2022/05/25 13:12:48;;;;;;;1.23;0.77;;;24.60;42.80;;;;;;4919459;28;90136;-76
2022/05/25 13:15:47;;;;;;;0.70;0.53;;;24.50;42.70;;;;;;4906981;28;88888;-75
2022/05/25 13:18:50;;;;;;;0.40;0.40;;;24.60;42.80;;;;;;4910586;28;88628;-75
2022/05/25 13:21:35;;;;;;;1.27;0.60;;;24.60;42.80;;;;;;4911145;28;92013;-74
2022/05/25 13:24:20;;;;;;;0.87;0.60;;;24.60;42.80;;;;;;4900988;28;90227;-73
2022/05/25 13:27:30;;;;;;;3.20;0.63;;;24.70;42.80;;;;;;4901714;28;90541;-75
2022/05/25 13:30:04;;;;;;;1.70;0.70;;;24.70;42.90;;;;;;4901578;28;88738;-75
2022/05/25 13:32:40;;;;;;;1.03;0.70;;;24.70;42.80;;;;;;4909917;28;89959;-75
2022/05/25 13:35:40;;;;;;;0.97;0.60;;;24.70;42.80;;;;;;4920176;28;88637;-74
2022/05/25 13:38:23;;;;;;;1.03;0.73;;;24.70;42.90;;;;;;4920776;28;88519;-75
2022/05/25 13:40:53;;;;;;;1.13;0.33;;;24.80;43.00;;;;;;4923851;28;88378;-75